sensor_id;sensor_type;location;lat;lon;timestamp;temperature;humidity
3350;DHT22;1688;51.000;13.684;2022-10-16T00:01:21;17.30;99.90
3350;DHT22;1688;51.000;13.684;2022-10-16T00:03:47;17.40;99.90
3350;DHT22;1688;51.000;13.684;2022-10-16T00:06:15;17.40;99.90
3350;DHT22;1688;51.000;13.684;2022-10-16T00:08:42;17.40;99.90
3350;DHT22;1688;51.000;13.684;2022-10-16T00:11:11;17.40;99.90
3350;DHT22;1688;51.000;13.684;2022-10-16T00:13:38;17.40;99.90
3350;DHT22;1688;51.000;13.684;2022-10-16T00:16:06;17.40;99.90
3350;DHT22;1688;51.000;13.684;2022-10-16T00:18:33;17.40;99.90
3350;DHT22;1688;51.000;13.684;2022-10-16T00:21:04;17.40;99.90
3350;DHT22;1688;51.000;13.684;2022-10-16T00:23:31;17.40;99.90
3350;DHT22;1688;51.000;13.684;2022-10-16T00:26:00;17.50;99.90
3350;DHT22;1688;51.000;13.684;2022-10-16T00:28:27;17.50;99.90
3350;DHT22;1688;51.000;13.684;2022-10-16T00:30:53;17.50;99.90
3350;DHT22;1688;51.000;13.684;2022-10-16T00:33:19;17.40;99.90
3350;DHT22;1688;51.000;13.684;2022-10-16T00:35:45;17.50;99.90
3350;DHT22;1688;51.000;13.684;2022-10-16T00:38:11;17.50;99.90
3350;DHT22;1688;51.000;13.684;2022-10-16T00:40:37;17.50;99.90
3350;DHT22;1688;51.000;13.684;2022-10-16T00:43:12;17.50;99.90
3350;DHT22;1688;51.000;13.684;2022-10-16T00:45:38;17.50;99.90
3350;DHT22;1688;51.000;13.684;2022-10-16T00:48:03;17.50;99.90
3350;DHT22;1688;51.000;13.684;2022-10-16T00:50:34;17.50;99.90
3350;DHT22;1688;51.000;13.684;2022-10-16T00:53:01;17.50;99.90
3350;DHT22;1688;51.000;13.684;2022-10-16T00:55:28;17.40;99.90
3350;DHT22;1688;51.000;13.684;2022-10-16T00:57:56;17.40;99.90
3350;DHT22;1688;51.000;13.684;2022-10-16T01:00:25;17.40;99.90
3350;DHT22;1688;51.000;13.684;2022-10-16T01:02:55;17.40;99.90
3350;DHT22;1688;51.000;13.684;2022-10-16T01:05:24;17.40;99.90
3350;DHT22;1688;51.000;13.684;2022-10-16T01:07:58;17.40;99.90
3350;DHT22;1688;51.000;13.684;2022-10-16T01:10:57;17.40;99.90
3350;DHT22;1688;51.000;13.684;2022-10-16T01:13:31;17.50;99.90
3350;DHT22;1688;51.000;13.684;2022-10-16T01:16:09;17.50;99.90
3350;DHT22;1688;51.000;13.684;2022-10-16T01:18:39;17.50;99.90
3350;DHT22;1688;51.000;13.684;2022-10-16T01:21:16;17.50;99.90
3350;DHT22;1688;51.000;13.684;2022-10-16T01:29:27;17.50;99.90
3350;DHT22;1688;51.000;13.684;2022-10-16T01:32:00;17.50;99.90
3350;DHT22;1688;51.000;13.684;2022-10-16T01:34:55;17.60;99.90
3350;DHT22;1688;51.000;13.684;2022-10-16T01:37:33;17.60;99.90
3350;DHT22;1688;51.000;13.684;2022-10-16T01:40:03;17.60;99.90
3350;DHT22;1688;51.000;13.684;2022-10-16T01:42:35;17.70;99.90
3350;DHT22;1688;51.000;13.684;2022-10-16T01:45:05;17.80;99.90
3350;DHT22;1688;51.000;13.684;2022-10-16T01:47:33;17.80;99.90
3350;DHT22;1688;51.000;13.684;2022-10-16T01:50:02;17.80;99.90
3350;DHT22;1688;51.000;13.684;2022-10-16T01:52:32;17.80;99.90
3350;DHT22;1688;51.000;13.684;2022-10-16T01:55:02;17.90;99.90
3350;DHT22;1688;51.000;13.684;2022-10-16T01:57:29;17.90;99.90
3350;DHT22;1688;51.000;13.684;2022-10-16T02:00:00;17.90;99.90
3350;DHT22;1688;51.000;13.684;2022-10-16T02:02:28;18.00;99.90
3350;DHT22;1688;51.000;13.684;2022-10-16T02:08:04;18.00;99.90
3350;DHT22;1688;51.000;13.684;2022-10-16T02:10:31;18.00;99.90
3350;DHT22;1688;51.000;13.684;2022-10-16T02:13:05;18.00;99.90
3350;DHT22;1688;51.000;13.684;2022-10-16T02:15:31;18.00;99.90
3350;DHT22;1688;51.000;13.684;2022-10-16T02:17:57;18.00;99.90
3350;DHT22;1688;51.000;13.684;2022-10-16T02:20:27;18.00;99.90
3350;DHT22;1688;51.000;13.684;2022-10-16T02:22:54;18.00;99.90
3350;DHT22;1688;51.000;13.684;2022-10-16T02:25:30;18.00;99.90
3350;DHT22;1688;51.000;13.684;2022-10-16T02:28:01;18.00;99.90
3350;DHT22;1688;51.000;13.684;2022-10-16T02:30:33;18.00;99.90
3350;DHT22;1688;51.000;13.684;2022-10-16T02:33:00;18.00;99.90
3350;DHT22;1688;51.000;13.684;2022-10-16T02:35:28;18.00;99.90
3350;DHT22;1688;51.000;13.684;2022-10-16T02:37:55;18.00;99.90
3350;DHT22;1688;51.000;13.684;2022-10-16T02:40:21;17.90;99.90
3350;DHT22;1688;51.000;13.684;2022-10-16T02:42:51;17.90;99.90
3350;DHT22;1688;51.000;13.684;2022-10-16T02:45:17;18.00;99.90
3350;DHT22;1688;51.000;13.684;2022-10-16T02:47:43;18.00;99.90
3350;DHT22;1688;51.000;13.684;2022-10-16T02:50:10;18.10;99.90
3350;DHT22;1688;51.000;13.684;2022-10-16T02:52:37;18.20;99.90
3350;DHT22;1688;51.000;13.684;2022-10-16T02:55:03;18.10;99.90
3350;DHT22;1688;51.000;13.684;2022-10-16T02:57:29;18.10;99.90
3350;DHT22;1688;51.000;13.684;2022-10-16T02:59:55;18.20;99.90
3350;DHT22;1688;51.000;13.684;2022-10-16T03:02:21;18.10;99.90
3350;DHT22;1688;51.000;13.684;2022-10-16T03:04:46;18.10;99.90
3350;DHT22;1688;51.000;13.684;2022-10-16T03:07:12;18.10;99.90
3350;DHT22;1688;51.000;13.684;2022-10-16T03:09:38;18.10;99.90
3350;DHT22;1688;51.000;13.684;2022-10-16T03:12:04;18.00;99.90
3350;DHT22;1688;51.000;13.684;2022-10-16T03:14:30;18.00;99.90
3350;DHT22;1688;51.000;13.684;2022-10-16T03:16:55;18.00;99.90
3350;DHT22;1688;51.000;13.684;2022-10-16T03:19:21;18.00;99.90
3350;DHT22;1688;51.000;13.684;2022-10-16T03:21:47;18.00;99.90
3350;DHT22;1688;51.000;13.684;2022-10-16T03:24:13;18.10;99.90
3350;DHT22;1688;51.000;13.684;2022-10-16T03:26:38;18.10;99.90
3350;DHT22;1688;51.000;13.684;2022-10-16T03:29:04;18.10;99.90
3350;DHT22;1688;51.000;13.684;2022-10-16T03:31:30;18.10;99.90
3350;DHT22;1688;51.000;13.684;2022-10-16T03:33:56;18.10;99.90
3350;DHT22;1688;51.000;13.684;2022-10-16T03:36:22;18.10;99.90
3350;DHT22;1688;51.000;13.684;2022-10-16T03:38:48;18.10;99.90
3350;DHT22;1688;51.000;13.684;2022-10-16T03:41:14;18.10;99.90
3350;DHT22;1688;51.000;13.684;2022-10-16T03:43:39;18.10;99.90
3350;DHT22;1688;51.000;13.684;2022-10-16T03:46:05;18.10;99.90
3350;DHT22;1688;51.000;13.684;2022-10-16T03:48:32;18.10;99.90
3350;DHT22;1688;51.000;13.684;2022-10-16T03:50:58;18.10;99.90
3350;DHT22;1688;51.000;13.684;2022-10-16T03:53:24;18.10;99.90
3350;DHT22;1688;51.000;13.684;2022-10-16T03:55:50;18.10;99.90
3350;DHT22;1688;51.000;13.684;2022-10-16T03:58:16;18.20;99.90
3350;DHT22;1688;51.000;13.684;2022-10-16T04:00:43;18.20;99.90
3350;DHT22;1688;51.000;13.684;2022-10-16T04:03:10;18.20;99.90
3350;DHT22;1688;51.000;13.684;2022-10-16T04:05:36;18.20;99.90
3350;DHT22;1688;51.000;13.684;2022-10-16T04:08:03;18.20;99.90
3350;DHT22;1688;51.000;13.684;2022-10-16T04:10:29;18.20;99.90
3350;DHT22;1688;51.000;13.684;2022-10-16T04:12:55;18.20;99.90
3350;DHT22;1688;51.000;13.684;2022-10-16T04:15:24;18.20;99.90
3350;DHT22;1688;51.000;13.684;2022-10-16T04:17:51;18.20;99.90
3350;DHT22;1688;51.000;13.684;2022-10-16T04:20:17;18.20;99.90
3350;DHT22;1688;51.000;13.684;2022-10-16T04:22:43;18.20;99.90
3350;DHT22;1688;51.000;13.684;2022-10-16T04:25:09;18.20;99.90
3350;DHT22;1688;51.000;13.684;2022-10-16T04:27:36;18.20;99.90
3350;DHT22;1688;51.000;13.684;2022-10-16T04:30:02;18.20;99.90
3350;DHT22;1688;51.000;13.684;2022-10-16T04:32:28;18.20;99.90
3350;DHT22;1688;51.000;13.684;2022-10-16T04:34:54;18.10;99.90
3350;DHT22;1688;51.000;13.684;2022-10-16T04:37:24;18.10;99.90
3350;DHT22;1688;51.000;13.684;2022-10-16T04:39:50;18.00;99.90
3350;DHT22;1688;51.000;13.684;2022-10-16T04:42:16;18.10;99.90
3350;DHT22;1688;51.000;13.684;2022-10-16T04:44:42;18.10;99.90
3350;DHT22;1688;51.000;13.684;2022-10-16T04:47:08;18.10;99.90
3350;DHT22;1688;51.000;13.684;2022-10-16T04:49:34;18.10;99.90
3350;DHT22;1688;51.000;13.684;2022-10-16T04:51:59;18.10;99.90
3350;DHT22;1688;51.000;13.684;2022-10-16T04:54:25;18.20;99.90
3350;DHT22;1688;51.000;13.684;2022-10-16T04:56:52;18.20;99.90
3350;DHT22;1688;51.000;13.684;2022-10-16T04:59:18;18.20;99.90
3350;DHT22;1688;51.000;13.684;2022-10-16T05:01:45;18.20;99.90
3350;DHT22;1688;51.000;13.684;2022-10-16T05:04:12;18.10;99.90
3350;DHT22;1688;51.000;13.684;2022-10-16T05:06:38;18.10;99.90
3350;DHT22;1688;51.000;13.684;2022-10-16T05:09:05;18.10;99.90
3350;DHT22;1688;51.000;13.684;2022-10-16T05:11:31;18.20;99.90
3350;DHT22;1688;51.000;13.684;2022-10-16T05:13:58;18.20;99.90
3350;DHT22;1688;51.000;13.684;2022-10-16T05:16:24;18.20;99.90
3350;DHT22;1688;51.000;13.684;2022-10-16T05:18:51;18.20;99.90
3350;DHT22;1688;51.000;13.684;2022-10-16T05:21:17;18.20;99.90
3350;DHT22;1688;51.000;13.684;2022-10-16T05:23:43;18.20;99.90
3350;DHT22;1688;51.000;13.684;2022-10-16T05:26:09;18.20;99.90
3350;DHT22;1688;51.000;13.684;2022-10-16T05:28:35;18.30;99.90
3350;DHT22;1688;51.000;13.684;2022-10-16T05:31:10;18.30;99.90
3350;DHT22;1688;51.000;13.684;2022-10-16T05:33:37;18.30;99.90
3350;DHT22;1688;51.000;13.684;2022-10-16T05:36:05;18.30;99.90
3350;DHT22;1688;51.000;13.684;2022-10-16T05:38:33;18.30;99.90
3350;DHT22;1688;51.000;13.684;2022-10-16T05:40:59;18.30;99.90
3350;DHT22;1688;51.000;13.684;2022-10-16T05:43:30;18.20;99.90
3350;DHT22;1688;51.000;13.684;2022-10-16T05:46:03;18.20;99.90
3350;DHT22;1688;51.000;13.684;2022-10-16T05:48:30;18.20;99.90
3350;DHT22;1688;51.000;13.684;2022-10-16T05:51:01;18.10;99.90
3350;DHT22;1688;51.000;13.684;2022-10-16T05:53:28;18.10;99.90
3350;DHT22;1688;51.000;13.684;2022-10-16T05:55:55;18.00;99.90
3350;DHT22;1688;51.000;13.684;2022-10-16T05:58:21;18.00;99.90
3350;DHT22;1688;51.000;13.684;2022-10-16T06:01:04;18.10;99.90
3350;DHT22;1688;51.000;13.684;2022-10-16T06:03:30;18.10;99.90
3350;DHT22;1688;51.000;13.684;2022-10-16T06:05:56;18.00;99.90
3350;DHT22;1688;51.000;13.684;2022-10-16T06:08:24;18.00;99.90
3350;DHT22;1688;51.000;13.684;2022-10-16T06:11:12;18.10;99.90
3350;DHT22;1688;51.000;13.684;2022-10-16T06:13:38;18.10;99.90
3350;DHT22;1688;51.000;13.684;2022-10-16T06:16:07;18.10;99.90
3350;DHT22;1688;51.000;13.684;2022-10-16T06:18:35;18.10;99.90
3350;DHT22;1688;51.000;13.684;2022-10-16T06:21:07;18.10;99.90
3350;DHT22;1688;51.000;13.684;2022-10-16T06:23:33;18.10;99.90
3350;DHT22;1688;51.000;13.684;2022-10-16T06:26:10;18.10;99.90
3350;DHT22;1688;51.000;13.684;2022-10-16T06:28:37;18.20;99.90
3350;DHT22;1688;51.000;13.684;2022-10-16T06:31:05;18.20;99.90
3350;DHT22;1688;51.000;13.684;2022-10-16T06:33:31;18.30;99.90
3350;DHT22;1688;51.000;13.684;2022-10-16T06:36:01;18.40;99.90
3350;DHT22;1688;51.000;13.684;2022-10-16T06:38:29;18.30;99.90
3350;DHT22;1688;51.000;13.684;2022-10-16T06:40:55;18.30;99.90
3350;DHT22;1688;51.000;13.684;2022-10-16T06:43:20;18.30;99.90
3350;DHT22;1688;51.000;13.684;2022-10-16T06:45:56;18.40;99.90
3350;DHT22;1688;51.000;13.684;2022-10-16T06:48:23;18.50;99.90
3350;DHT22;1688;51.000;13.684;2022-10-16T06:53:30;18.70;99.90
3350;DHT22;1688;51.000;13.684;2022-10-16T06:55:56;18.70;99.90
3350;DHT22;1688;51.000;13.684;2022-10-16T06:58:22;18.70;99.90
3350;DHT22;1688;51.000;13.684;2022-10-16T07:00:49;18.60;99.90
3350;DHT22;1688;51.000;13.684;2022-10-16T07:03:20;18.70;99.90
3350;DHT22;1688;51.000;13.684;2022-10-16T07:05:45;18.60;99.90
3350;DHT22;1688;51.000;13.684;2022-10-16T07:08:12;18.60;99.90
3350;DHT22;1688;51.000;13.684;2022-10-16T07:10:38;18.60;99.90
3350;DHT22;1688;51.000;13.684;2022-10-16T07:13:04;18.70;99.90
3350;DHT22;1688;51.000;13.684;2022-10-16T07:15:29;18.70;99.90
3350;DHT22;1688;51.000;13.684;2022-10-16T07:17:55;18.80;99.90
3350;DHT22;1688;51.000;13.684;2022-10-16T07:20:21;18.80;99.90
3350;DHT22;1688;51.000;13.684;2022-10-16T07:22:47;18.80;99.90
3350;DHT22;1688;51.000;13.684;2022-10-16T07:25:12;18.90;99.90
3350;DHT22;1688;51.000;13.684;2022-10-16T07:27:41;19.00;99.90
3350;DHT22;1688;51.000;13.684;2022-10-16T07:30:08;19.00;99.90
3350;DHT22;1688;51.000;13.684;2022-10-16T07:32:34;19.00;99.90
3350;DHT22;1688;51.000;13.684;2022-10-16T07:35:00;19.00;99.90
3350;DHT22;1688;51.000;13.684;2022-10-16T07:37:26;19.00;99.90
3350;DHT22;1688;51.000;13.684;2022-10-16T07:39:54;19.10;99.90
3350;DHT22;1688;51.000;13.684;2022-10-16T07:42:20;19.10;99.90
3350;DHT22;1688;51.000;13.684;2022-10-16T07:44:46;19.10;99.90
3350;DHT22;1688;51.000;13.684;2022-10-16T07:47:12;19.20;99.90
3350;DHT22;1688;51.000;13.684;2022-10-16T07:49:38;19.30;99.90
3350;DHT22;1688;51.000;13.684;2022-10-16T07:52:04;19.40;99.90
3350;DHT22;1688;51.000;13.684;2022-10-16T07:54:30;19.40;99.90
3350;DHT22;1688;51.000;13.684;2022-10-16T07:56:56;19.50;99.90
3350;DHT22;1688;51.000;13.684;2022-10-16T07:59:22;19.50;99.90
3350;DHT22;1688;51.000;13.684;2022-10-16T08:01:49;19.60;99.90
3350;DHT22;1688;51.000;13.684;2022-10-16T08:04:15;19.60;99.90
3350;DHT22;1688;51.000;13.684;2022-10-16T08:06:41;19.60;99.90
3350;DHT22;1688;51.000;13.684;2022-10-16T08:09:07;19.70;99.90
3350;DHT22;1688;51.000;13.684;2022-10-16T08:11:34;19.80;99.90
3350;DHT22;1688;51.000;13.684;2022-10-16T08:14:00;19.90;99.90
3350;DHT22;1688;51.000;13.684;2022-10-16T08:16:25;20.10;99.90
3350;DHT22;1688;51.000;13.684;2022-10-16T08:18:52;20.10;99.90
3350;DHT22;1688;51.000;13.684;2022-10-16T08:21:20;20.10;99.90
3350;DHT22;1688;51.000;13.684;2022-10-16T08:23:49;20.20;99.90
3350;DHT22;1688;51.000;13.684;2022-10-16T08:26:15;20.20;99.90
3350;DHT22;1688;51.000;13.684;2022-10-16T08:28:41;20.20;99.90
3350;DHT22;1688;51.000;13.684;2022-10-16T08:31:10;20.20;99.90
3350;DHT22;1688;51.000;13.684;2022-10-16T08:33:37;20.20;99.90
3350;DHT22;1688;51.000;13.684;2022-10-16T08:36:05;20.30;99.90
3350;DHT22;1688;51.000;13.684;2022-10-16T08:38:32;20.40;99.90
3350;DHT22;1688;51.000;13.684;2022-10-16T08:47:34;20.60;99.90
3350;DHT22;1688;51.000;13.684;2022-10-16T08:50:10;20.80;99.90
3350;DHT22;1688;51.000;13.684;2022-10-16T08:52:39;21.30;99.90
3350;DHT22;1688;51.000;13.684;2022-10-16T08:55:06;21.80;99.90
3350;DHT22;1688;51.000;13.684;2022-10-16T08:57:32;22.10;99.90
3350;DHT22;1688;51.000;13.684;2022-10-16T09:00:09;22.20;99.90
3350;DHT22;1688;51.000;13.684;2022-10-16T09:03:04;22.90;99.90
3350;DHT22;1688;51.000;13.684;2022-10-16T09:05:54;24.00;99.90
3350;DHT22;1688;51.000;13.684;2022-10-16T09:11:11;24.70;99.90
3350;DHT22;1688;51.000;13.684;2022-10-16T09:16:22;24.10;99.90
3350;DHT22;1688;51.000;13.684;2022-10-16T09:21:23;24.10;99.90
3350;DHT22;1688;51.000;13.684;2022-10-16T09:23:50;24.50;99.90
3350;DHT22;1688;51.000;13.684;2022-10-16T09:26:17;25.20;99.90
3350;DHT22;1688;51.000;13.684;2022-10-16T09:28:45;26.50;99.90
3350;DHT22;1688;51.000;13.684;2022-10-16T09:31:17;27.30;98.80
3350;DHT22;1688;51.000;13.684;2022-10-16T09:33:45;26.70;97.70
3350;DHT22;1688;51.000;13.684;2022-10-16T09:36:13;26.00;98.40
3350;DHT22;1688;51.000;13.684;2022-10-16T09:38:40;25.50;99.20
3350;DHT22;1688;51.000;13.684;2022-10-16T09:41:15;24.90;99.90
3350;DHT22;1688;51.000;13.684;2022-10-16T09:44:00;24.50;99.90
3350;DHT22;1688;51.000;13.684;2022-10-16T09:46:33;24.10;99.90
3350;DHT22;1688;51.000;13.684;2022-10-16T09:49:01;23.90;99.90
3350;DHT22;1688;51.000;13.684;2022-10-16T09:51:30;23.80;99.90
3350;DHT22;1688;51.000;13.684;2022-10-16T09:54:00;23.70;99.90
3350;DHT22;1688;51.000;13.684;2022-10-16T09:58:56;23.60;99.90
3350;DHT22;1688;51.000;13.684;2022-10-16T10:01:29;23.60;99.90
3350;DHT22;1688;51.000;13.684;2022-10-16T10:03:57;23.60;99.90
3350;DHT22;1688;51.000;13.684;2022-10-16T10:06:33;23.50;99.90
3350;DHT22;1688;51.000;13.684;2022-10-16T10:09:19;23.30;99.90
3350;DHT22;1688;51.000;13.684;2022-10-16T10:11:59;23.30;99.90
3350;DHT22;1688;51.000;13.684;2022-10-16T10:17:22;23.40;99.90
3350;DHT22;1688;51.000;13.684;2022-10-16T10:22:30;23.40;99.90
3350;DHT22;1688;51.000;13.684;2022-10-16T10:25:00;23.70;99.90
3350;DHT22;1688;51.000;13.684;2022-10-16T10:30:29;24.40;99.90
3350;DHT22;1688;51.000;13.684;2022-10-16T10:38:41;24.90;99.90
3350;DHT22;1688;51.000;13.684;2022-10-16T10:46:34;24.80;99.90
3350;DHT22;1688;51.000;13.684;2022-10-16T10:57:22;27.00;97.60
3350;DHT22;1688;51.000;13.684;2022-10-16T11:00:16;27.20;97.60
3350;DHT22;1688;51.000;13.684;2022-10-16T11:03:07;27.40;97.20
3350;DHT22;1688;51.000;13.684;2022-10-16T11:09:18;26.80;97.00
3350;DHT22;1688;51.000;13.684;2022-10-16T11:17:07;25.90;98.10
3350;DHT22;1688;51.000;13.684;2022-10-16T11:19:46;25.80;98.30
3350;DHT22;1688;51.000;13.684;2022-10-16T11:22:34;25.70;98.40
3350;DHT22;1688;51.000;13.684;2022-10-16T11:25:30;25.50;98.20
3350;DHT22;1688;51.000;13.684;2022-10-16T11:30:28;25.20;99.00
3350;DHT22;1688;51.000;13.684;2022-10-16T11:33:06;25.10;98.90
3350;DHT22;1688;51.000;13.684;2022-10-16T11:35:43;25.00;99.40
3350;DHT22;1688;51.000;13.684;2022-10-16T11:38:34;24.90;99.30
3350;DHT22;1688;51.000;13.684;2022-10-16T11:43:42;24.50;99.50
3350;DHT22;1688;51.000;13.684;2022-10-16T11:46:13;24.40;99.70
3350;DHT22;1688;51.000;13.684;2022-10-16T11:48:54;24.40;99.90
3350;DHT22;1688;51.000;13.684;2022-10-16T11:51:29;24.40;99.90
3350;DHT22;1688;51.000;13.684;2022-10-16T11:56:32;24.70;99.90
3350;DHT22;1688;51.000;13.684;2022-10-16T11:59:13;25.10;99.90
3350;DHT22;1688;51.000;13.684;2022-10-16T12:01:50;25.20;99.50
3350;DHT22;1688;51.000;13.684;2022-10-16T12:07:08;25.10;99.00
3350;DHT22;1688;51.000;13.684;2022-10-16T12:09:38;25.10;99.00
3350;DHT22;1688;51.000;13.684;2022-10-16T12:12:05;25.00;98.60
3350;DHT22;1688;51.000;13.684;2022-10-16T12:14:59;24.90;98.40
3350;DHT22;1688;51.000;13.684;2022-10-16T12:17:36;24.80;99.30
3350;DHT22;1688;51.000;13.684;2022-10-16T12:22:47;24.70;99.20
3350;DHT22;1688;51.000;13.684;2022-10-16T12:28:17;24.70;99.70
3350;DHT22;1688;51.000;13.684;2022-10-16T12:30:54;24.60;99.60
3350;DHT22;1688;51.000;13.684;2022-10-16T12:33:23;24.50;99.60
3350;DHT22;1688;51.000;13.684;2022-10-16T12:35:50;24.50;99.90
3350;DHT22;1688;51.000;13.684;2022-10-16T12:39:00;24.50;99.90
3350;DHT22;1688;51.000;13.684;2022-10-16T12:41:08;24.40;99.90
3350;DHT22;1688;51.000;13.684;2022-10-16T12:43:40;24.40;99.90
3350;DHT22;1688;51.000;13.684;2022-10-16T12:48:37;24.70;99.90
3350;DHT22;1688;51.000;13.684;2022-10-16T12:51:11;24.70;99.90
3350;DHT22;1688;51.000;13.684;2022-10-16T12:53:37;24.90;99.70
3350;DHT22;1688;51.000;13.684;2022-10-16T12:56:17;24.90;98.80
3350;DHT22;1688;51.000;13.684;2022-10-16T13:04:22;25.20;98.80
3350;DHT22;1688;51.000;13.684;2022-10-16T13:07:03;25.10;99.10
3350;DHT22;1688;51.000;13.684;2022-10-16T13:09:47;25.10;98.70
3350;DHT22;1688;51.000;13.684;2022-10-16T13:23:35;24.60;99.40
3350;DHT22;1688;51.000;13.684;2022-10-16T13:26:15;24.50;99.50
3350;DHT22;1688;51.000;13.684;2022-10-16T13:28:43;24.40;99.90
3350;DHT22;1688;51.000;13.684;2022-10-16T13:31:19;24.30;99.70
3350;DHT22;1688;51.000;13.684;2022-10-16T13:33:50;24.30;99.90
3350;DHT22;1688;51.000;13.684;2022-10-16T13:36:33;24.40;99.90
3350;DHT22;1688;51.000;13.684;2022-10-16T13:41:38;24.80;99.90
3350;DHT22;1688;51.000;13.684;2022-10-16T13:44:04;24.80;99.90
3350;DHT22;1688;51.000;13.684;2022-10-16T13:46:31;24.80;99.90
3350;DHT22;1688;51.000;13.684;2022-10-16T13:49:12;24.70;99.90
3350;DHT22;1688;51.000;13.684;2022-10-16T13:51:38;24.50;99.90
3350;DHT22;1688;51.000;13.684;2022-10-16T13:54:04;24.40;99.90
3350;DHT22;1688;51.000;13.684;2022-10-16T13:56:32;24.30;99.90
3350;DHT22;1688;51.000;13.684;2022-10-16T14:01:28;24.20;99.90
3350;DHT22;1688;51.000;13.684;2022-10-16T14:04:02;24.20;99.90
3350;DHT22;1688;51.000;13.684;2022-10-16T14:06:29;24.10;99.90
3350;DHT22;1688;51.000;13.684;2022-10-16T14:09:23;24.00;99.90
3350;DHT22;1688;51.000;13.684;2022-10-16T14:11:56;23.90;99.90
3350;DHT22;1688;51.000;13.684;2022-10-16T14:14:23;23.90;99.90
3350;DHT22;1688;51.000;13.684;2022-10-16T14:16:49;23.80;99.90
3350;DHT22;1688;51.000;13.684;2022-10-16T14:19:20;23.80;99.90
3350;DHT22;1688;51.000;13.684;2022-10-16T14:21:49;23.70;99.90
3350;DHT22;1688;51.000;13.684;2022-10-16T14:26:53;23.60;99.90
3350;DHT22;1688;51.000;13.684;2022-10-16T14:29:23;23.70;99.90
3350;DHT22;1688;51.000;13.684;2022-10-16T14:32:04;23.80;99.90
3350;DHT22;1688;51.000;13.684;2022-10-16T14:34:32;23.70;99.90
3350;DHT22;1688;51.000;13.684;2022-10-16T14:37:45;23.70;99.90
3350;DHT22;1688;51.000;13.684;2022-10-16T14:39:50;23.70;99.90
3350;DHT22;1688;51.000;13.684;2022-10-16T14:42:17;23.70;99.90
3350;DHT22;1688;51.000;13.684;2022-10-16T14:44:45;23.60;99.90
3350;DHT22;1688;51.000;13.684;2022-10-16T14:47:17;23.60;99.90
3350;DHT22;1688;51.000;13.684;2022-10-16T14:49:47;23.60;99.90
3350;DHT22;1688;51.000;13.684;2022-10-16T14:52:14;23.60;99.90
3350;DHT22;1688;51.000;13.684;2022-10-16T14:54:40;23.60;99.90
3350;DHT22;1688;51.000;13.684;2022-10-16T14:57:21;23.60;99.90
3350;DHT22;1688;51.000;13.684;2022-10-16T14:59:49;23.60;99.90
3350;DHT22;1688;51.000;13.684;2022-10-16T15:02:33;23.60;99.90
3350;DHT22;1688;51.000;13.684;2022-10-16T15:05:24;23.50;99.90
3350;DHT22;1688;51.000;13.684;2022-10-16T15:07:53;23.50;99.90
3350;DHT22;1688;51.000;13.684;2022-10-16T15:10:20;23.50;99.90
3350;DHT22;1688;51.000;13.684;2022-10-16T15:12:47;23.50;99.90
3350;DHT22;1688;51.000;13.684;2022-10-16T15:15:25;23.50;99.90
3350;DHT22;1688;51.000;13.684;2022-10-16T15:17:54;23.50;99.90
3350;DHT22;1688;51.000;13.684;2022-10-16T15:20:31;23.50;99.90
3350;DHT22;1688;51.000;13.684;2022-10-16T15:23:03;23.50;99.90
3350;DHT22;1688;51.000;13.684;2022-10-16T15:25:31;23.60;99.90
3350;DHT22;1688;51.000;13.684;2022-10-16T15:27:59;23.50;99.90
3350;DHT22;1688;51.000;13.684;2022-10-16T15:30:25;23.50;99.90
3350;DHT22;1688;51.000;13.684;2022-10-16T15:32:51;23.40;99.90
3350;DHT22;1688;51.000;13.684;2022-10-16T15:35:17;23.40;99.90
3350;DHT22;1688;51.000;13.684;2022-10-16T15:37:43;23.30;99.90
3350;DHT22;1688;51.000;13.684;2022-10-16T15:40:10;23.20;99.90
3350;DHT22;1688;51.000;13.684;2022-10-16T15:42:36;23.10;99.90
3350;DHT22;1688;51.000;13.684;2022-10-16T15:45:02;23.00;99.90
3350;DHT22;1688;51.000;13.684;2022-10-16T15:47:29;22.90;99.90
3350;DHT22;1688;51.000;13.684;2022-10-16T15:49:56;22.80;99.90
3350;DHT22;1688;51.000;13.684;2022-10-16T15:52:22;22.70;99.90
3350;DHT22;1688;51.000;13.684;2022-10-16T15:54:48;22.50;99.90
3350;DHT22;1688;51.000;13.684;2022-10-16T15:57:14;22.40;99.90
3350;DHT22;1688;51.000;13.684;2022-10-16T15:59:40;22.30;99.90
3350;DHT22;1688;51.000;13.684;2022-10-16T16:02:09;22.20;99.90
3350;DHT22;1688;51.000;13.684;2022-10-16T16:04:34;22.10;99.90
3350;DHT22;1688;51.000;13.684;2022-10-16T16:07:01;21.90;99.90
3350;DHT22;1688;51.000;13.684;2022-10-16T16:09:29;21.80;99.90
3350;DHT22;1688;51.000;13.684;2022-10-16T16:11:55;21.80;99.90
3350;DHT22;1688;51.000;13.684;2022-10-16T16:14:22;21.70;99.90
3350;DHT22;1688;51.000;13.684;2022-10-16T16:16:50;21.50;99.90
3350;DHT22;1688;51.000;13.684;2022-10-16T16:19:16;21.40;99.90
3350;DHT22;1688;51.000;13.684;2022-10-16T16:21:46;21.30;99.90
3350;DHT22;1688;51.000;13.684;2022-10-16T16:24:12;21.20;99.90
3350;DHT22;1688;51.000;13.684;2022-10-16T16:26:39;21.10;99.90
3350;DHT22;1688;51.000;13.684;2022-10-16T16:29:12;21.00;99.90
3350;DHT22;1688;51.000;13.684;2022-10-16T16:31:39;20.90;99.90
3350;DHT22;1688;51.000;13.684;2022-10-16T16:34:05;20.80;99.90
3350;DHT22;1688;51.000;13.684;2022-10-16T16:36:32;20.70;99.90
3350;DHT22;1688;51.000;13.684;2022-10-16T16:38:58;20.60;99.90
3350;DHT22;1688;51.000;13.684;2022-10-16T16:41:26;20.60;99.90
3350;DHT22;1688;51.000;13.684;2022-10-16T16:43:53;20.50;99.90
3350;DHT22;1688;51.000;13.684;2022-10-16T16:46:19;20.40;99.90
3350;DHT22;1688;51.000;13.684;2022-10-16T16:48:46;20.30;99.90
3350;DHT22;1688;51.000;13.684;2022-10-16T16:51:14;20.20;99.90
3350;DHT22;1688;51.000;13.684;2022-10-16T16:53:49;20.20;99.90
3350;DHT22;1688;51.000;13.684;2022-10-16T16:56:17;20.10;99.90
3350;DHT22;1688;51.000;13.684;2022-10-16T16:58:48;20.00;99.90
3350;DHT22;1688;51.000;13.684;2022-10-16T17:01:14;19.90;99.90
3350;DHT22;1688;51.000;13.684;2022-10-16T17:03:42;19.90;99.90
3350;DHT22;1688;51.000;13.684;2022-10-16T17:06:12;19.80;99.90
3350;DHT22;1688;51.000;13.684;2022-10-16T17:08:40;19.80;99.90
3350;DHT22;1688;51.000;13.684;2022-10-16T17:11:10;19.80;99.90
3350;DHT22;1688;51.000;13.684;2022-10-16T17:13:36;19.80;99.90
3350;DHT22;1688;51.000;13.684;2022-10-16T17:16:05;19.80;99.90
3350;DHT22;1688;51.000;13.684;2022-10-16T17:18:31;19.80;99.90
3350;DHT22;1688;51.000;13.684;2022-10-16T17:21:06;19.80;99.90
3350;DHT22;1688;51.000;13.684;2022-10-16T17:23:33;19.70;99.90
3350;DHT22;1688;51.000;13.684;2022-10-16T17:28:31;19.60;99.90
3350;DHT22;1688;51.000;13.684;2022-10-16T17:31:07;19.60;99.90
3350;DHT22;1688;51.000;13.684;2022-10-16T17:33:33;19.50;99.90
3350;DHT22;1688;51.000;13.684;2022-10-16T17:35:59;19.50;99.90
3350;DHT22;1688;51.000;13.684;2022-10-16T17:38:24;19.50;99.90
3350;DHT22;1688;51.000;13.684;2022-10-16T17:40:50;19.40;99.90
3350;DHT22;1688;51.000;13.684;2022-10-16T17:43:16;19.40;99.90
3350;DHT22;1688;51.000;13.684;2022-10-16T17:45:44;19.30;99.90
3350;DHT22;1688;51.000;13.684;2022-10-16T17:48:10;19.40;99.90
3350;DHT22;1688;51.000;13.684;2022-10-16T17:50:40;19.30;99.90